createdAt,value
2023-04-12T00:00:50.733Z,100995.22
2023-04-12T00:03:20.380Z,100999.28
2023-04-12T00:05:48.155Z,100996.69
2023-04-12T00:08:16.798Z,100994.47
2023-04-12T00:10:43.421Z,100983.31
2023-04-12T00:13:10.177Z,100983.03
2023-04-12T00:15:36.917Z,100973.75
2023-04-12T00:18:03.827Z,100975.41
2023-04-12T00:20:30.409Z,100964.94
2023-04-12T00:22:57.601Z,100967.25
2023-04-12T00:25:24.398Z,100960.94
2023-04-12T00:27:51.447Z,100967.03
2023-04-12T00:30:18.076Z,100963.03
2023-04-12T00:32:45.110Z,100957.53
2023-04-12T00:35:11.535Z,100949.47
2023-04-12T00:37:39.194Z,100945.28
2023-04-12T00:40:08.215Z,100947.00
2023-04-12T00:42:36.329Z,100948.63
2023-04-12T00:45:02.956Z,100939.59
2023-04-12T00:47:30.291Z,100951.28
2023-04-12T00:49:56.966Z,100940.19
2023-04-12T00:52:23.538Z,100932.97
2023-04-12T00:54:51.775Z,100932.34
2023-04-12T00:57:18.567Z,100920.63
2023-04-12T00:59:45.227Z,100911.28
2023-04-12T01:02:11.885Z,100907.81
2023-04-12T01:04:39.562Z,100901.88
2023-04-12T01:07:29.971Z,100908.75
2023-04-12T01:10:09.856Z,100887.03
2023-04-12T01:13:04.843Z,100895.91
2023-04-12T01:15:35.014Z,100892.69
2023-04-12T01:18:08.041Z,100887.56
2023-04-12T01:20:54.561Z,100882.00
2023-04-12T01:23:40.851Z,100880.94
2023-04-12T01:26:34.805Z,100873.94
2023-04-12T01:29:07.700Z,100870.84
2023-04-12T01:31:36.937Z,100869.63
2023-04-12T01:34:06.090Z,100867.75
2023-04-12T01:36:34.836Z,100866.69
2023-04-12T01:39:04.533Z,100864.81
2023-04-12T01:41:32.994Z,100865.63
2023-04-12T01:43:59.575Z,100853.72
2023-04-12T01:46:26.416Z,100848.63
2023-04-12T01:48:54.552Z,100845.44
2023-04-12T01:51:51.172Z,100842.34
2023-04-12T01:54:33.022Z,100837.94
2023-04-12T01:57:04.290Z,100834.63
2023-04-12T01:59:36.004Z,100825.19
2023-04-12T02:02:03.780Z,100828.06
2023-04-12T02:04:32.659Z,100822.09
2023-04-12T02:06:59.814Z,100817.94
2023-04-12T02:09:26.395Z,100803.47
2023-04-12T02:11:52.983Z,100802.03
2023-04-12T02:14:19.444Z,100804.75
2023-04-12T02:16:46.516Z,100796.66
2023-04-12T02:19:13.284Z,100792.59
2023-04-12T02:21:43.601Z,100788.00
2023-04-12T02:24:11.301Z,100786.19
2023-04-12T02:26:38.477Z,100778.81
2023-04-12T02:29:09.144Z,100780.34
2023-04-12T02:31:38.784Z,100772.38
2023-04-12T02:34:08.176Z,100770.09
2023-04-12T02:36:37.613Z,100764.88
2023-04-12T02:39:04.543Z,100749.41
2023-04-12T02:41:34.100Z,100742.28
2023-04-12T02:44:01.087Z,100720.91
2023-04-12T02:46:27.655Z,100712.34
2023-04-12T02:48:57.871Z,100716.03
2023-04-12T02:51:32.383Z,100707.84
2023-04-12T02:53:59.948Z,100709.00
2023-04-12T02:56:30.222Z,100694.25
2023-04-12T02:59:06.731Z,100693.06
2023-04-12T03:01:56.124Z,100680.94
2023-04-12T03:04:30.461Z,100677.63
2023-04-12T03:06:59.549Z,100669.06
2023-04-12T03:09:35.025Z,100672.25
2023-04-12T03:12:02.856Z,100661.44
2023-04-12T03:14:33.275Z,100665.25
2023-04-12T03:16:59.971Z,100655.75
2023-04-12T03:19:26.428Z,100646.97
2023-04-12T03:21:55.058Z,100639.84
2023-04-12T03:24:21.795Z,100640.75
2023-04-12T03:26:50.069Z,100644.00
2023-04-12T03:29:22.269Z,100632.44
2023-04-12T03:31:50.849Z,100628.66
2023-04-12T03:34:17.856Z,100627.56
2023-04-12T03:36:48.798Z,100624.00
2023-04-12T03:39:35.357Z,100615.00
2023-04-12T03:42:01.892Z,100608.69
2023-04-12T03:44:29.114Z,100613.91
2023-04-12T03:46:57.766Z,100600.59
2023-04-12T03:49:26.424Z,100598.69
2023-04-12T03:51:53.091Z,100594.66
2023-04-12T03:54:19.696Z,100586.34
2023-04-12T03:57:01.969Z,100579.69
2023-04-12T03:59:36.536Z,100563.38
2023-04-12T04:02:03.483Z,100564.69
2023-04-12T04:04:32.895Z,100553.88
2023-04-12T04:07:05.326Z,100546.28
2023-04-12T04:09:39.827Z,100541.88
2023-04-12T04:12:06.567Z,100535.09
2023-04-12T04:14:36.896Z,100529.25
2023-04-12T04:17:05.710Z,100529.50
2023-04-12T04:19:34.233Z,100523.31
2023-04-12T04:22:02.018Z,100526.19
2023-04-12T04:24:29.271Z,100520.22
2023-04-12T04:26:59.720Z,100525.00
2023-04-12T04:29:29.080Z,100520.97
2023-04-12T04:31:57.876Z,100518.69
2023-04-12T04:34:25.634Z,100506.81
2023-04-12T04:36:58.701Z,100502.38
2023-04-12T04:39:27.338Z,100494.09
2023-04-12T04:42:06.510Z,100496.00
2023-04-12T04:44:38.886Z,100488.50
2023-04-12T04:47:08.606Z,100485.03
2023-04-12T04:49:39.506Z,100481.47
2023-04-12T04:52:24.247Z,100474.13
2023-04-12T04:54:57.591Z,100468.19
2023-04-12T04:57:26.715Z,100469.84
2023-04-12T04:59:56.006Z,100470.56
2023-04-12T05:02:22.756Z,100471.97
2023-04-12T05:04:49.374Z,100469.47
2023-04-12T05:07:18.816Z,100467.59
2023-04-12T05:09:47.823Z,100462.91
2023-04-12T05:12:14.783Z,100462.13
2023-04-12T05:14:49.846Z,100462.69
2023-04-12T05:17:18.538Z,100466.03
2023-04-12T05:19:45.412Z,100467.44
2023-04-12T05:22:13.723Z,100452.91
2023-04-12T05:24:40.813Z,100447.41
2023-04-12T05:27:07.232Z,100439.19
2023-04-12T05:29:34.638Z,100433.97
2023-04-12T05:32:01.185Z,100435.75
2023-04-12T05:34:27.633Z,100433.00
2023-04-12T05:36:56.796Z,100425.63
2023-04-12T05:39:23.518Z,100425.94
2023-04-12T05:41:51.852Z,100418.09
2023-04-12T05:44:18.385Z,100418.22
2023-04-12T05:46:44.928Z,100415.47
2023-04-12T05:49:12.388Z,100417.97
2023-04-12T05:51:41.271Z,100408.28
2023-04-12T05:54:12.630Z,100404.34
2023-04-12T05:56:39.107Z,100400.63
2023-04-12T05:59:06.630Z,100398.94
2023-04-12T06:01:33.349Z,100396.78
2023-04-12T06:04:06.087Z,100388.88
2023-04-12T06:06:32.847Z,100393.44
2023-04-12T06:09:01.044Z,100386.09
2023-04-12T06:11:28.921Z,100385.41
2023-04-12T06:13:55.712Z,100388.34
2023-04-12T06:16:23.016Z,100396.28
2023-04-12T06:18:49.576Z,100385.13
2023-04-12T06:21:16.081Z,100387.25
2023-04-12T06:23:42.709Z,100383.16
2023-04-12T06:26:09.372Z,100383.59
2023-04-12T06:28:35.848Z,100365.50
2023-04-12T06:31:02.278Z,100357.41
2023-04-12T06:33:33.563Z,100354.41
2023-04-12T06:36:00.929Z,100359.91
2023-04-12T06:38:27.451Z,100355.66
2023-04-12T06:40:53.865Z,100350.41
2023-04-12T06:43:22.348Z,100334.53
2023-04-12T06:45:51.875Z,100353.47
2023-04-12T06:48:18.709Z,100354.53
2023-04-12T06:50:45.763Z,100344.34
2023-04-12T06:53:13.631Z,100346.38
2023-04-12T06:55:40.652Z,100347.50
2023-04-12T06:58:07.306Z,100341.25
2023-04-12T07:00:34.565Z,100344.84
2023-04-12T07:03:01.666Z,100338.63
2023-04-12T07:05:28.320Z,100337.69
2023-04-12T07:07:54.859Z,100327.19
2023-04-12T07:10:21.301Z,100320.13
2023-04-12T07:12:47.929Z,100313.78
2023-04-12T07:15:14.327Z,100318.59
2023-04-12T07:17:40.816Z,100308.06
2023-04-12T07:20:07.918Z,100304.78
2023-04-12T07:22:34.495Z,100307.78
2023-04-12T07:25:00.934Z,100302.78
2023-04-12T07:27:27.413Z,100297.53
2023-04-12T07:29:54.473Z,100291.72
2023-04-12T07:32:21.502Z,100294.44
2023-04-12T07:34:48.016Z,100282.53
2023-04-12T07:37:14.568Z,100281.69
2023-04-12T07:39:41.294Z,100280.75
2023-04-12T07:42:07.797Z,100284.97
2023-04-12T07:44:36.409Z,100277.09
2023-04-12T07:47:04.724Z,100272.84
2023-04-12T07:49:31.189Z,100274.25
2023-04-12T07:51:57.755Z,100258.97
2023-04-12T07:54:27.648Z,100262.03
2023-04-12T07:57:03.808Z,100250.13
2023-04-12T07:59:31.391Z,100245.38
2023-04-12T08:01:58.047Z,100238.84
2023-04-12T08:04:24.629Z,100236.31
2023-04-12T08:06:51.936Z,100234.78
2023-04-12T08:09:18.398Z,100218.19
2023-04-12T08:11:45.384Z,100210.69
2023-04-12T08:14:11.800Z,100217.59
2023-04-12T08:16:38.283Z,100212.03
2023-04-12T08:19:04.669Z,100204.84
2023-04-12T08:21:31.109Z,100193.19
2023-04-12T08:23:57.859Z,100196.88
2023-04-12T08:26:26.486Z,100197.03
2023-04-12T08:28:52.906Z,100185.06
2023-04-12T08:31:19.424Z,100188.47
2023-04-12T08:33:46.001Z,100176.56
2023-04-12T08:36:12.738Z,100172.78
2023-04-12T08:38:45.385Z,100162.97
2023-04-12T08:41:13.220Z,100158.72
2023-04-12T08:43:43.666Z,100141.19
2023-04-12T08:46:10.752Z,100140.13
2023-04-12T08:48:38.307Z,100139.63
2023-04-12T08:51:05.829Z,100137.88
2023-04-12T08:53:33.534Z,100134.75
2023-04-12T08:56:00.285Z,100128.66
2023-04-12T08:58:27.335Z,100120.50
2023-04-12T09:00:54.638Z,100121.53
2023-04-12T09:03:21.350Z,100114.50
2023-04-12T09:05:48.121Z,100114.66
2023-04-12T09:08:14.593Z,100104.66
2023-04-12T09:10:42.773Z,100102.19
2023-04-12T09:13:09.595Z,100107.75
2023-04-12T09:15:36.262Z,100099.19
2023-04-12T09:18:11.295Z,100098.56
2023-04-12T09:20:38.942Z,100087.16
2023-04-12T09:23:26.551Z,100082.75
2023-04-12T09:25:54.003Z,100072.91
2023-04-12T09:28:29.769Z,100074.06
2023-04-12T09:31:00.227Z,100068.28
2023-04-12T09:33:38.033Z,100051.28
2023-04-12T09:36:06.609Z,100051.59
2023-04-12T09:38:33.632Z,100046.19
2023-04-12T09:41:20.790Z,100050.16
2023-04-12T09:43:48.909Z,100046.88
2023-04-12T09:46:16.454Z,100051.47
2023-04-12T09:48:51.751Z,100045.41
2023-04-12T09:51:33.431Z,100050.66
2023-04-12T09:54:05.566Z,100040.28
2023-04-12T09:56:34.273Z,100029.44
2023-04-12T09:59:03.196Z,100032.91
2023-04-12T10:01:38.953Z,100031.09
2023-04-12T10:04:08.103Z,100022.84
2023-04-12T10:06:36.912Z,100015.31
2023-04-12T10:09:04.369Z,100017.59
2023-04-12T10:11:32.227Z,100011.84
2023-04-12T10:13:59.678Z,100019.59
2023-04-12T10:16:27.495Z,100025.38
2023-04-12T10:18:55.296Z,100012.34
2023-04-12T10:21:22.387Z,100014.69
2023-04-12T10:23:49.032Z,100015.31
2023-04-12T10:26:16.914Z,100017.28
2023-04-12T10:28:47.751Z,100022.53
2023-04-12T10:31:28.097Z,100014.63
2023-04-12T10:33:55.327Z,100016.59
2023-04-12T10:36:51.355Z,100018.91
2023-04-12T10:39:17.971Z,100028.44
2023-04-12T10:42:19.399Z,100017.56
2023-04-12T10:44:47.243Z,100018.38
2023-04-12T10:47:14.165Z,100017.19
2023-04-12T10:49:40.766Z,100023.09
2023-04-12T10:52:10.696Z,100022.09
2023-04-12T10:54:37.204Z,100020.25
2023-04-12T10:57:06.685Z,100010.03
2023-04-12T10:59:50.898Z,100010.84
2023-04-12T11:02:17.954Z,100004.44
2023-04-12T11:05:04.700Z,100005.53
2023-04-12T11:07:54.455Z,100017.66
2023-04-12T11:10:39.250Z,100005.50
2023-04-12T11:13:09.097Z,100020.13
2023-04-12T11:15:39.782Z,100014.72
2023-04-12T11:18:11.724Z,100017.03
2023-04-12T11:20:40.712Z,100020.97
2023-04-12T11:23:10.595Z,100019.78
2023-04-12T11:25:37.840Z,100023.91
2023-04-12T11:28:11.015Z,100014.69
2023-04-12T11:30:54.332Z,100024.19
2023-04-12T11:33:33.444Z,100014.59
2023-04-12T11:36:03.356Z,100011.16
2023-04-12T11:38:30.009Z,100011.72
2023-04-12T11:40:56.618Z,100011.25
2023-04-12T11:43:23.328Z,100007.28
2023-04-12T11:45:56.138Z,100006.75
2023-04-12T11:48:22.684Z,100000.22
2023-04-12T11:50:57.087Z,99988.50
2023-04-12T11:53:30.639Z,99996.78
2023-04-12T11:55:58.458Z,99986.72
2023-04-12T11:58:28.903Z,99989.53
2023-04-12T12:00:57.167Z,99991.81
2023-04-12T12:03:24.696Z,99980.63
2023-04-12T12:05:52.121Z,99975.72
2023-04-12T12:08:19.806Z,99960.66
2023-04-12T12:13:18.886Z,99962.06
2023-04-12T12:15:45.996Z,99965.41
2023-04-12T12:18:12.611Z,99962.41
2023-04-12T12:20:41.503Z,99956.16
2023-04-12T12:23:08.121Z,99956.66
2023-04-12T12:25:34.739Z,99956.97
2023-04-12T12:28:03.490Z,99955.47
2023-04-12T12:30:30.655Z,99949.22
2023-04-12T12:32:57.120Z,99944.41
2023-04-12T12:35:26.130Z,99940.47
2023-04-12T12:37:55.810Z,99940.88
2023-04-12T12:40:31.503Z,99932.81
2023-04-12T12:42:58.178Z,99926.38
2023-04-12T12:45:27.632Z,99925.56
2023-04-12T12:47:59.591Z,99912.63
2023-04-12T12:50:28.111Z,99918.38
2023-04-12T12:52:55.762Z,99909.47
2023-04-12T12:55:24.537Z,99912.94
2023-04-12T12:58:07.308Z,99907.84
2023-04-12T13:00:35.497Z,99907.50
2023-04-12T13:03:02.581Z,99902.72
2023-04-12T13:05:29.730Z,99896.81
2023-04-12T13:07:56.201Z,99895.50
2023-04-12T13:10:23.793Z,99887.94
2023-04-12T13:12:50.323Z,99894.84
2023-04-12T13:15:22.864Z,99883.66
2023-04-12T13:17:54.614Z,99882.19
2023-04-12T13:20:22.537Z,99873.78
2023-04-12T13:22:50.138Z,99877.25
2023-04-12T13:25:16.829Z,99865.88
2023-04-12T13:27:43.223Z,99866.09
2023-04-12T13:30:10.044Z,99871.16
2023-04-12T13:32:36.495Z,99868.84
2023-04-12T13:35:03.979Z,99869.34
2023-04-12T13:37:31.359Z,99870.00
2023-04-12T13:39:57.926Z,99858.66
2023-04-12T13:42:24.388Z,99852.88
2023-04-12T13:44:51.124Z,99850.94
2023-04-12T13:47:20.592Z,99853.09
2023-04-12T13:49:47.204Z,99851.56
2023-04-12T13:52:13.849Z,99857.34
2023-04-12T13:54:41.182Z,99854.88
2023-04-12T13:57:07.877Z,99850.25
2023-04-12T13:59:34.553Z,99849.59
2023-04-12T14:02:01.760Z,99849.78
2023-04-12T14:04:29.852Z,99844.34
2023-04-12T14:06:57.065Z,99839.91
2023-04-12T14:09:27.605Z,99845.34
2023-04-12T14:11:56.069Z,99835.28
2023-04-12T14:14:23.195Z,99842.41
2023-04-12T14:16:57.131Z,99835.47
2023-04-12T14:19:24.231Z,99829.88
2023-04-12T14:21:51.666Z,99828.59
2023-04-12T14:24:19.313Z,99834.16
2023-04-12T14:26:46.138Z,99816.56
2023-04-12T14:29:13.469Z,99813.56
2023-04-12T14:31:40.417Z,99818.69
2023-04-12T14:34:08.725Z,99825.25
2023-04-12T14:36:35.260Z,99821.97
2023-04-12T14:39:04.043Z,99819.34
2023-04-12T14:41:31.651Z,99816.03
2023-04-12T14:44:01.668Z,99801.56
2023-04-12T14:46:28.704Z,99806.16
2023-04-12T14:48:57.397Z,99809.09
2023-04-12T14:51:24.108Z,99795.22
2023-04-12T14:53:51.012Z,99802.16
2023-04-12T14:56:24.333Z,99796.91
2023-04-12T14:58:55.850Z,99797.53
2023-04-12T15:01:23.761Z,99792.59
2023-04-12T15:03:51.911Z,99798.03
2023-04-12T15:06:19.226Z,99800.84
2023-04-12T15:08:46.632Z,99799.69
2023-04-12T15:11:13.437Z,99794.75
2023-04-12T15:13:41.510Z,99789.50
2023-04-12T15:16:09.141Z,99794.13
2023-04-12T15:18:41.563Z,99790.66
2023-04-12T15:21:10.333Z,99791.16
2023-04-12T15:23:38.370Z,99784.41
2023-04-12T15:26:07.502Z,99790.00
2023-04-12T15:28:34.069Z,99786.22
2023-04-12T15:31:01.149Z,99779.81
2023-04-12T15:33:28.472Z,99773.72
2023-04-12T15:35:57.760Z,99772.38
2023-04-12T15:38:24.842Z,99764.31
2023-04-12T15:40:56.156Z,99771.22
2023-04-12T15:43:23.773Z,99767.59
2023-04-12T15:45:54.734Z,99765.44
2023-04-12T15:48:22.949Z,99767.09
2023-04-12T15:50:54.111Z,99770.91
2023-04-12T15:53:23.136Z,99768.44
2023-04-12T15:55:54.558Z,99771.91
2023-04-12T15:58:25.154Z,99768.09
2023-04-12T16:00:53.916Z,99762.84
2023-04-12T16:03:23.278Z,99767.78
2023-04-12T16:05:53.572Z,99760.16
2023-04-12T16:08:22.239Z,99761.34
2023-04-12T16:10:49.866Z,99764.31
2023-04-12T16:13:16.350Z,99766.97
2023-04-12T16:15:42.875Z,99758.06
2023-04-12T16:18:09.681Z,99754.75
2023-04-12T16:20:37.384Z,99754.75
2023-04-12T16:23:05.046Z,99750.78
2023-04-12T16:25:32.137Z,99755.41
2023-04-12T16:28:02.308Z,99760.38
2023-04-12T16:30:30.940Z,99764.50
2023-04-12T16:32:58.097Z,99760.69
2023-04-12T16:35:24.604Z,99757.41
2023-04-12T16:37:51.317Z,99755.59
2023-04-12T16:40:17.950Z,99754.09
2023-04-12T16:42:44.921Z,99757.09
2023-04-12T16:45:13.969Z,99744.91
2023-04-12T16:47:40.828Z,99736.50
2023-04-12T16:50:09.104Z,99744.25
2023-04-12T16:52:36.634Z,99746.56
2023-04-12T16:55:04.215Z,99744.91
2023-04-12T16:57:31.115Z,99740.44
2023-04-12T16:59:57.665Z,99737.97
2023-04-12T17:02:24.977Z,99746.06
2023-04-12T17:04:51.911Z,99739.84
2023-04-12T17:07:18.902Z,99732.28
2023-04-12T17:09:45.586Z,99735.53
2023-04-12T17:12:12.539Z,99736.22
2023-04-12T17:14:39.281Z,99722.53
2023-04-12T17:17:06.630Z,99710.88
2023-04-12T17:19:33.579Z,99712.34
2023-04-12T17:22:00.162Z,99703.09
2023-04-12T17:24:26.857Z,99699.94
2023-04-12T17:26:53.650Z,99696.81
2023-04-12T17:29:20.455Z,99705.03
2023-04-12T17:31:49.753Z,99708.50
2023-04-12T17:34:19.031Z,99705.41
2023-04-12T17:36:45.460Z,99701.44
2023-04-12T17:39:12.491Z,99703.59
2023-04-12T17:41:39.303Z,99708.88
2023-04-12T17:44:06.656Z,99706.06
2023-04-12T17:46:34.671Z,99708.06
2023-04-12T17:49:04.116Z,99705.09
2023-04-12T17:51:31.458Z,99702.50
2023-04-12T17:53:58.451Z,99696.56
2023-04-12T17:56:25.881Z,99703.97
2023-04-12T17:58:53.334Z,99707.44
2023-04-12T18:01:19.803Z,99710.06
2023-04-12T18:03:47.619Z,99707.09
2023-04-12T18:06:14.270Z,99707.94
2023-04-12T18:08:40.744Z,99704.16
2023-04-12T18:11:07.907Z,99709.41
2023-04-12T18:13:34.529Z,99706.94
2023-04-12T18:16:01.500Z,99711.38
2023-04-12T18:18:28.212Z,99717.81
2023-04-12T18:20:54.693Z,99736.06
2023-04-12T18:23:21.470Z,99738.56
2023-04-12T18:25:48.014Z,99733.47
2023-04-12T18:28:14.928Z,99732.81
2023-04-12T18:30:41.418Z,99733.47
2023-04-12T18:35:34.351Z,99735.44
2023-04-12T18:38:01.036Z,99744.66
2023-04-12T18:40:27.483Z,99752.22
2023-04-12T18:42:54.166Z,99764.38
2023-04-12T18:45:20.678Z,99767.03
2023-04-12T18:47:47.311Z,99777.53
2023-04-12T18:50:14.427Z,99768.03
2023-04-12T18:52:40.988Z,99775.09
2023-04-12T18:55:08.070Z,99770.66
2023-04-12T18:57:34.793Z,99775.25
2023-04-12T19:00:01.438Z,99772.13
2023-04-12T19:02:28.257Z,99776.72
2023-04-12T19:04:55.019Z,99779.88
2023-04-12T19:07:22.354Z,99786.41
2023-04-12T19:09:48.915Z,99803.88
2023-04-12T19:12:15.472Z,99811.75
2023-04-12T19:14:41.885Z,99821.28
2023-04-12T19:17:09.584Z,99824.50
2023-04-12T19:19:36.096Z,99838.09
2023-04-12T19:22:02.776Z,99858.13
2023-04-12T19:24:29.270Z,99853.03
2023-04-12T19:26:56.393Z,99860.72
2023-04-12T19:29:24.154Z,99848.66
2023-04-12T19:31:53.782Z,99853.53
2023-04-12T19:34:20.707Z,99852.53
2023-04-12T19:36:47.562Z,99857.00
2023-04-12T19:39:15.475Z,99851.59
2023-04-12T19:41:42.066Z,99859.72
2023-04-12T19:44:08.621Z,99852.38
2023-04-12T19:46:38.484Z,99860.47
2023-04-12T19:49:05.206Z,99860.91
2023-04-12T19:51:31.737Z,99856.03
2023-04-12T19:53:59.258Z,99848.09
2023-04-12T19:56:26.145Z,99847.06
2023-04-12T19:58:54.552Z,99850.06
2023-04-12T20:01:21.139Z,99841.88
2023-04-12T20:03:47.898Z,99831.16
2023-04-12T20:06:14.816Z,99817.81
2023-04-12T20:08:41.384Z,99819.63
2023-04-12T20:11:08.027Z,99821.81
2023-04-12T20:13:36.146Z,99815.44
2023-04-12T20:16:04.314Z,99811.97
2023-04-12T20:18:30.737Z,99809.63
2023-04-12T20:20:57.803Z,99808.75
2023-04-12T20:23:28.018Z,99809.59
2023-04-12T20:25:55.539Z,99822.69
2023-04-12T20:28:22.134Z,99823.25
2023-04-12T20:30:48.852Z,99824.03
2023-04-12T20:33:15.752Z,99824.03
2023-04-12T20:35:44.838Z,99812.88
2023-04-12T20:38:11.778Z,99802.69
2023-04-12T20:40:39.826Z,99807.09
2023-04-12T20:43:06.306Z,99799.28
2023-04-12T20:45:34.599Z,99805.59
2023-04-12T20:48:01.195Z,99816.03
2023-04-12T20:50:30.340Z,99812.50
2023-04-12T20:52:57.793Z,99815.38
2023-04-12T20:55:31.185Z,99813.84
2023-04-12T20:57:57.675Z,99817.09
2023-04-12T21:00:24.766Z,99827.06
2023-04-12T21:02:51.395Z,99831.03
2023-04-12T21:05:17.925Z,99841.16
2023-04-12T21:07:46.972Z,99838.81
2023-04-12T21:10:14.599Z,99844.56
2023-04-12T21:12:41.650Z,99851.31
2023-04-12T21:15:09.222Z,99849.16
2023-04-12T21:17:36.547Z,99854.00
2023-04-12T21:20:13.099Z,99852.22
2023-04-12T21:22:41.638Z,99853.34
2023-04-12T21:25:09.787Z,99845.53
2023-04-12T21:27:36.354Z,99837.13
2023-04-12T21:30:03.382Z,99837.97
2023-04-12T21:32:30.065Z,99844.59
2023-04-12T21:34:58.346Z,99843.25
2023-04-12T21:37:25.791Z,99852.66
2023-04-12T21:39:53.086Z,99856.84
2023-04-12T21:42:19.793Z,99863.34
2023-04-12T21:44:46.185Z,99880.78
2023-04-12T21:47:12.886Z,99876.97
2023-04-12T21:49:39.404Z,99885.00
2023-04-12T21:52:06.948Z,99878.97
2023-04-12T21:54:36.758Z,99886.81
2023-04-12T21:57:03.603Z,99882.53
2023-04-12T21:59:30.004Z,99868.84
2023-04-12T22:01:56.887Z,99877.09
2023-04-12T22:04:23.511Z,99882.88
2023-04-12T22:06:51.525Z,99887.94
2023-04-12T22:09:18.643Z,99893.31
2023-04-12T22:11:46.536Z,99891.22
2023-04-12T22:14:12.955Z,99892.19
2023-04-12T22:16:39.481Z,99901.00
2023-04-12T22:19:05.886Z,99897.84
2023-04-12T22:21:33.537Z,99894.22
2023-04-12T22:24:00.401Z,99890.78
2023-04-12T22:26:27.188Z,99889.13
2023-04-12T22:28:54.149Z,99888.59
2023-04-12T22:31:22.824Z,99892.06
2023-04-12T22:33:49.389Z,99889.28
2023-04-12T22:36:16.275Z,99889.97
2023-04-12T22:38:42.764Z,99879.25
2023-04-12T22:41:09.390Z,99876.47
2023-04-12T22:43:47.835Z,99876.91
2023-04-12T22:46:18.644Z,99882.41
2023-04-12T22:48:48.383Z,99891.91
2023-04-12T22:51:15.372Z,99899.50
2023-04-12T22:53:43.255Z,99894.97
2023-04-12T22:56:09.931Z,99890.28
2023-04-12T22:58:37.367Z,99883.69
2023-04-12T23:01:06.976Z,99875.44
2023-04-12T23:03:33.505Z,99875.56
2023-04-12T23:06:00.130Z,99875.00
2023-04-12T23:08:26.629Z,99864.84
2023-04-12T23:10:53.388Z,99860.88
2023-04-12T23:13:20.162Z,99867.28
2023-04-12T23:15:46.877Z,99864.53
2023-04-12T23:18:13.347Z,99871.03
2023-04-12T23:20:40.448Z,99868.84
2023-04-12T23:23:07.059Z,99869.09
2023-04-12T23:25:41.182Z,99861.53
2023-04-12T23:28:15.169Z,99864.44
2023-04-12T23:30:48.759Z,99866.06
2023-04-12T23:33:18.094Z,99877.13
2023-04-12T23:36:02.792Z,99887.03
2023-04-12T23:38:33.624Z,99892.00
2023-04-12T23:41:02.241Z,99888.41
2023-04-12T23:43:29.360Z,99888.72
2023-04-12T23:45:57.142Z,99884.72
2023-04-12T23:48:24.161Z,99889.81
2023-04-12T23:50:51.380Z,99888.56
2023-04-12T23:53:18.853Z,99892.28
2023-04-12T23:55:51.123Z,99890.38
2023-04-12T23:58:18.328Z,99889.81
